| time (UTC) | temp C | wind direction | speed KPH | gust KPH | rain 1hr cm | rain 24hr cm | rain mn cm | humidity % | barometer mb |
| 20260506151301 | 15 | 282 | 3.2 | 3.2 | 0.00 | 0.00 | 0.00 | 85 | 1019.6 |
| 20260506150758 | 15 | 348 | 4.8 | 4.8 | 0.00 | 0.00 | 0.00 | 85 | 1019.7 |
| 20260506150303 | 15 | 340 | 1.6 | 3.2 | 0.00 | 0.00 | 0.00 | 87 | 1019.9 |
| 20260506145752 | 14 | 163 | 6.4 | 9.7 | 0.00 | 0.00 | 0.00 | 88 | 1019.6 |
| 20260506145248 | 13 | 289 | 8.0 | 9.7 | 0.00 | 0.00 | 0.00 | 89 | 1019.7 |
| 20260506144746 | 13 | 281 | 4.8 | 8.0 | 0.00 | 0.00 | 0.00 | 90 | 1019.9 |
| 20260506144242 | 13 | 287 | 4.8 | 8.0 | 0.00 | 0.00 | 0.00 | 92 | 1019.9 |
| 20260506143740 | 13 | 317 | 0.0 | 0.0 | 0.00 | 0.00 | 0.00 | 93 | 1019.9 |
| 20260506143237 | 12 | 308 | 6.4 | 8.0 | 0.00 | 0.00 | 0.00 | 94 | 1019.6 |
| 20260506142736 | 12 | 304 | 3.2 | 3.2 | 0.00 | 0.00 | 0.00 | 94 | 1019.8 |
| 20260506142233 | 12 | 275 | 0.0 | 1.6 | 0.00 | 0.00 | 0.00 | 95 | 1019.8 |
| 20260506141731 | 12 | 299 | 3.2 | 3.2 | 0.00 | 0.00 | 0.00 | 95 | 1019.7 |
| 20260506141229 | 11 | 301 | 3.2 | 3.2 | 0.00 | 0.00 | 0.00 | 95 | 1019.4 |
| 20260506140727 | 11 | 263 | 0.0 | 1.6 | 0.00 | 0.00 | 0.00 | 95 | 1019.4 |
| 20260506140223 | 11 | 276 | 4.8 | 4.8 | 0.00 | 0.00 | 0.00 | 95 | 1019.5 |
| 20260506135720 | 11 | 325 | 3.2 | 3.2 | 0.00 | 0.00 | 0.00 | 95 | 1019.2 |
| 20260506135216 | 11 | 310 | 1.6 | 1.6 | 0.00 | 0.00 | 0.00 | 95 | 1019.2 |
| 20260506134714 | 11 | 266 | 0.0 | 0.0 | 0.00 | 0.00 | 0.00 | 95 | 1018.9 |
| 20260506134209 | 11 | 273 | 3.2 | 3.2 | 0.00 | 0.00 | 0.00 | 95 | 1018.9 |
| 20260506133707 | 11 | 302 | 3.2 | 4.8 | 0.00 | 0.00 | 0.00 | 95 | 1019.1 |
| 20260506133203 | 10 | 290 | 4.8 | 4.8 | 0.00 | 0.00 | 0.00 | 95 | 1019.1 |
| 20260506132701 | 10 | 272 | 1.6 | 3.2 | 0.00 | 0.00 | 0.00 | 95 | 1019.0 |
| 20260506132157 | 10 | 278 | 1.6 | 3.2 | 0.00 | 0.00 | 0.00 | 95 | 1018.9 |
| 20260506131655 | 10 | 291 | 1.6 | 1.6 | 0.00 | 0.00 | 0.00 | 95 | 1019.1 |
| 20260506131151 | 10 | 295 | 0.0 | 1.6 | 0.00 | 0.00 | 0.00 | 95 | 1019.0 |
| 20260506130648 | 10 | 281 | 4.8 | 4.8 | 0.00 | 0.00 | 0.00 | 95 | 1019.0 |
| 20260506130145 | 10 | 285 | 3.2 | 4.8 | 0.00 | 0.00 | 0.00 | 95 | 1018.9 |
| 20260506125644 | 10 | 293 | 0.0 | 0.0 | 0.00 | 0.00 | 0.00 | 95 | 1018.8 |
| 20260506125141 | 10 | 296 | 0.0 | 1.6 | 0.00 | 0.00 | 0.00 | 95 | 1018.7 |
| 20260506124639 | 10 | 304 | 1.6 | 1.6 | 0.00 | 0.00 | 0.00 | 95 | 1018.7 |
| 20260506124136 | 10 | 301 | 0.0 | 0.0 | 0.00 | 0.00 | 0.00 | 95 | 1018.6 |
| 20260506123634 | 10 | 295 | 0.0 | 1.6 | 0.00 | 0.00 | 0.00 | 95 | 1018.6 |
| 20260506123132 | 11 | 305 | 0.0 | 1.6 | 0.00 | 0.00 | 0.00 | 95 | 1018.6 |
| 20260506122629 | 11 | 275 | 1.6 | 3.2 | 0.00 | 0.00 | 0.00 | 95 | 1018.6 |
| 20260506122126 | 10 | 304 | 4.8 | 4.8 | 0.00 | 0.00 | 0.00 | 95 | 1018.5 |
| 20260506121624 | 10 | 286 | 1.6 | 3.2 | 0.00 | 0.00 | 0.00 | 95 | 1018.4 |
| 20260506121120 | 10 | 285 | 0.0 | 0.0 | 0.00 | 0.00 | 0.00 | 95 | 1018.4 |
| 20260506120618 | 10 | 301 | 0.0 | 0.0 | 0.00 | 0.00 | 0.00 | 95 | 1018.1 |
| 20260506120115 | 10 | 306 | 0.0 | 0.0 | 0.00 | 0.00 | 0.00 | 95 | 1018.3 |
| 20260506115614 | 11 | 292 | 0.0 | 1.6 | 0.00 | 0.00 | 0.00 | 95 | 1018.1 |
| 20260506115112 | 11 | 311 | 0.0 | 0.0 | 0.00 | 0.00 | 0.00 | 94 | 1018.1 |
| 20260506114608 | 11 | 50 | 0.0 | 0.0 | 0.00 | 0.00 | 0.00 | 95 | 1018.0 |
| 20260506114107 | 11 | 46 | 0.0 | 0.0 | 0.00 | 0.00 | 0.00 | 95 | 1018.3 |
| 20260506113604 | 11 | 356 | 0.0 | 0.0 | 0.00 | 0.00 | 0.00 | 95 | 1018.3 |
| 20260506113101 | 10 | 17 | 0.0 | 0.0 | 0.00 | 0.00 | 0.00 | 95 | 1018.2 |
| 20260506112558 | 10 | 265 | 0.0 | 0.0 | 0.00 | 0.00 | 0.00 | 95 | 1018.3 |
| 20260506112055 | 10 | 328 | 0.0 | 0.0 | 0.00 | 0.00 | 0.00 | 94 | 1018.3 |
| 20260506111553 | 10 | 337 | 0.0 | 0.0 | 0.00 | 0.00 | 0.00 | 94 | 1018.4 |
| 20260506111050 | 10 | 297 | 0.0 | 0.0 | 0.00 | 0.00 | 0.00 | 94 | 1018.3 |
| 20260506110548 | 10 | 278 | 0.0 | 0.0 | 0.00 | 0.00 | 0.00 | 94 | 1018.4 |
| 20260506110045 | 10 | 301 | 0.0 | 0.0 | 0.00 | 0.00 | 0.00 | 94 | 1018.3 |
| 20260506105541 | 10 | 293 | 0.0 | 0.0 | 0.00 | 0.00 | 0.00 | 94 | 1018.2 |
| 20260506105038 | 10 | 308 | 0.0 | 0.0 | 0.00 | 0.00 | 0.00 | 93 | 1018.2 |
| 20260506104536 | 10 | 293 | 0.0 | 0.0 | 0.00 | 0.00 | 0.00 | 93 | 1018.3 |
| 20260506104034 | 10 | 287 | 0.0 | 0.0 | 0.00 | 0.00 | 0.00 | 92 | 1018.3 |
| 20260506103531 | 11 | 290 | 0.0 | 0.0 | 0.00 | 0.00 | 0.00 | 92 | 1018.2 |
| 20260506103027 | 11 | 355 | 0.0 | 0.0 | 0.00 | 0.00 | 0.00 | 92 | 1018.2 |
| 20260506102526 | 11 | 337 | 0.0 | 0.0 | 0.00 | 0.00 | 0.00 | 92 | 1018.0 |
| 20260506102023 | 11 | 11 | 4.8 | 4.8 | 0.00 | 0.00 | 0.00 | 92 | 1018.1 |
| 20260506101519 | 11 | 16 | 0.0 | 0.0 | 0.00 | 0.00 | 0.00 | 92 | 1018.1 |
| 20260506101017 | 11 | 347 | 1.6 | 1.6 | 0.00 | 0.00 | 0.00 | 92 | 1018.1 |
| 20260506100515 | 11 | 338 | 0.0 | 1.6 | 0.00 | 0.00 | 0.00 | 91 | 1018.3 |
| 20260506100013 | 11 | 344 | 0.0 | 0.0 | 0.00 | 0.00 | 0.00 | 91 | 1017.9 |
| 20260506095511 | 12 | 4 | 0.0 | 0.0 | 0.00 | 0.00 | 0.00 | 91 | 1018.0 |
| 20260506095007 | 12 | 32 | 1.6 | 1.6 | 0.00 | 0.00 | 0.00 | 92 | 1017.8 |
| 20260506094505 | 12 | 6 | 0.0 | 0.0 | 0.00 | 0.00 | 0.00 | 92 | 1017.9 |
| 20260506094003 | 12 | 1 | 3.2 | 3.2 | 0.00 | 0.00 | 0.00 | 92 | 1017.8 |
| 20260506093501 | 12 | 31 | 1.6 | 1.6 | 0.00 | 0.00 | 0.00 | 92 | 1017.8 |
| 20260506092958 | 12 | 2 | 0.0 | 0.0 | 0.00 | 0.00 | 0.00 | 92 | 1017.7 |
| 20260506092456 | 11 | 253 | 0.0 | 0.0 | 0.00 | 0.00 | 0.00 | 92 | 1017.8 |
| 20260506091952 | 11 | 331 | 0.0 | 0.0 | 0.00 | 0.00 | 0.00 | 92 | 1017.6 |
| 20260506091450 | 11 | 267 | 0.0 | 0.0 | 0.00 | 0.00 | 0.00 | 92 | 1017.3 |
| 20260506090947 | 12 | 293 | 0.0 | 0.0 | 0.00 | 0.00 | 0.00 | 92 | 1017.5 |
| 20260506090445 | 12 | 296 | 6.4 | 9.7 | 0.00 | 0.00 | 0.00 | 92 | 1017.3 |
| 20260506085941 | 12 | 296 | 1.6 | 3.2 | 0.00 | 0.00 | 0.00 | 92 | 1017.2 |
| 20260506085438 | 11 | 305 | 4.8 | 8.0 | 0.00 | 0.00 | 0.00 | 92 | 1017.5 |
| 20260506084935 | 11 | 310 | 4.8 | 4.8 | 0.00 | 0.00 | 0.00 | 92 | 1017.6 |
| 20260506084432 | 11 | 289 | 0.0 | 0.0 | 0.00 | 0.00 | 0.00 | 91 | 1017.6 |
| 20260506083927 | 12 | 314 | 0.0 | 0.0 | 0.00 | 0.00 | 0.00 | 91 | 1017.6 |
| 20260506083425 | 12 | 40 | 0.0 | 0.0 | 0.00 | 0.00 | 0.00 | 91 | 1017.7 |
| 20260506082922 | 12 | 46 | 0.0 | 0.0 | 0.00 | 0.00 | 0.00 | 91 | 1017.7 |
| 20260506082419 | 12 | 354 | 0.0 | 0.0 | 0.00 | 0.00 | 0.00 | 90 | 1018.2 |
| 20260506081915 | 12 | 30 | 1.6 | 3.2 | 0.00 | 0.00 | 0.00 | 90 | 1018.0 |
| 20260506081414 | 12 | 346 | 0.0 | 0.0 | 0.00 | 0.00 | 0.00 | 90 | 1018.3 |
| 20260506080910 | 12 | 350 | 1.6 | 3.2 | 0.00 | 0.00 | 0.00 | 90 | 1018.5 |
| 20260506080407 | 12 | 313 | 3.2 | 3.2 | 0.00 | 0.00 | 0.00 | 90 | 1018.3 |
| 20260506073351 | 12 | 33 | 0.0 | 0.0 | 0.00 | 0.00 | 0.00 | 91 | 1017.9 |
| 20260506072848 | 12 | 9 | 0.0 | 0.0 | 0.00 | 0.00 | 0.00 | 91 | 1017.7 |
| 20260506072345 | 12 | 32 | 0.0 | 0.0 | 0.00 | 0.00 | 0.00 | 92 | 1018.0 |
| 20260506071843 | 12 | 7 | 0.0 | 0.0 | 0.00 | 0.00 | 0.00 | 92 | 1017.6 |
| 20260506071341 | 12 | 17 | 0.0 | 0.0 | 0.00 | 0.00 | 0.00 | 92 | 1017.6 |
| 20260506070837 | 12 | 5 | 0.0 | 0.0 | 0.00 | 0.00 | 0.00 | 93 | 1017.4 |
| 20260506070335 | 12 | 27 | 0.0 | 0.0 | 0.00 | 0.00 | 0.00 | 93 | 1017.4 |
| 20260506062312 | 12 | 356 | 0.0 | 0.0 | 0.00 | 0.00 | 0.00 | 92 | 1016.9 |
| 20260506061808 | 12 | 356 | 0.0 | 0.0 | 0.00 | 0.00 | 0.00 | 91 | 1016.9 |
| 20260506061305 | 12 | 352 | 0.0 | 0.0 | 0.00 | 0.00 | 0.00 | 91 | 1016.7 |
| 20260506060803 | 12 | 351 | 0.0 | 0.0 | 0.00 | 0.00 | 0.00 | 91 | 1016.8 |
| 20260506060301 | 12 | 337 | 0.0 | 0.0 | 0.00 | 0.00 | 0.00 | 91 | 1016.8 |
| 20260506051232 | 13 | 302 | 0.0 | 0.0 | 0.00 | 0.00 | 0.00 | 88 | 1016.5 |
| 20260506050730 | 13 | 290 | 0.0 | 0.0 | 0.00 | 0.00 | 0.00 | 88 | 1016.5 |
| 20260506050227 | 13 | 187 | 0.0 | 0.0 | 0.00 | 0.00 | 0.00 | 87 | 1016.5 |
| 20260506044718 | 13 | 316 | 0.0 | 0.0 | 0.00 | 0.00 | 0.00 | 86 | 1016.4 |
| 20260506044215 | 13 | 152 | 0.0 | 0.0 | 0.00 | 0.00 | 0.00 | 86 | 1016.2 |
| 20260506043712 | 13 | 239 | 0.0 | 0.0 | 0.00 | 0.00 | 0.00 | 86 | 1016.5 |
| 20260506043210 | 13 | 129 | 0.0 | 0.0 | 0.00 | 0.00 | 0.00 | 86 | 1016.1 |
| 20260506042709 | 13 | 111 | 0.0 | 0.0 | 0.00 | 0.00 | 0.00 | 85 | 1016.2 |
| 20260506042207 | 13 | 304 | 0.0 | 0.0 | 0.00 | 0.00 | 0.00 | 85 | 1016.1 |
| 20260506041705 | 13 | 264 | 0.0 | 0.0 | 0.00 | 0.00 | 0.00 | 84 | 1015.9 |
| 20260506041201 | 13 | 83 | 0.0 | 0.0 | 0.00 | 0.00 | 0.00 | 84 | 1015.8 |
| 20260506040659 | 13 | 15 | 0.0 | 0.0 | 0.00 | 0.00 | 0.00 | 83 | 1015.8 |
| 20260506040155 | 14 | 138 | 0.0 | 0.0 | 0.00 | 0.00 | 0.00 | 82 | 1016.0 |
| 20260506035652 | 14 | 112 | 0.0 | 0.0 | 0.00 | 0.00 | 0.00 | 82 | 1015.6 |
| 20260506035149 | 14 | 109 | 0.0 | 0.0 | 0.00 | 0.00 | 0.00 | 81 | 1015.5 |
| 20260506034646 | 14 | 197 | 0.0 | 0.0 | 0.00 | 0.00 | 0.00 | 81 | 1015.5 |
| 20260506034143 | 15 | 289 | 0.0 | 0.0 | 0.00 | 0.00 | 0.00 | 80 | 1015.2 |
| 20260506033641 | 15 | 179 | 0.0 | 0.0 | 0.00 | 0.00 | 0.00 | 79 | 1015.2 |
| 20260506033137 | 15 | 118 | 0.0 | 0.0 | 0.00 | 0.00 | 0.00 | 79 | 1015.3 |
| 20260506032635 | 15 | 143 | 0.0 | 0.0 | 0.00 | 0.00 | 0.00 | 79 | 1015.3 |
| 20260506032131 | 15 | 143 | 0.0 | 0.0 | 0.00 | 0.00 | 0.00 | 78 | 1015.2 |
| 20260506031628 | 15 | 273 | 0.0 | 0.0 | 0.00 | 0.00 | 0.00 | 78 | 1015.1 |
| 20260506031125 | 15 | 281 | 0.0 | 1.6 | 0.00 | 0.00 | 0.00 | 77 | 1014.9 |
| 20260506030624 | 16 | 5 | 0.0 | 1.6 | 0.00 | 0.00 | 0.00 | 76 | 1015.0 |
| 20260506030121 | 16 | 240 | 0.0 | 0.0 | 0.00 | 0.00 | 0.00 | 75 | 1014.9 |
| 20260506025617 | 16 | 156 | 0.0 | 0.0 | 0.00 | 0.00 | 0.00 | 75 | 1014.9 |
| 20260506025113 | 16 | 77 | 0.0 | 0.0 | 0.00 | 0.00 | 0.00 | 74 | 1014.6 |
| 20260506024611 | 17 | 40 | 0.0 | 1.6 | 0.00 | 0.00 | 0.00 | 72 | 1014.8 |
| 20260506024107 | 17 | 2 | 0.0 | 0.0 | 0.00 | 0.00 | 0.00 | 72 | 1014.6 |
| 20260506023603 | 17 | 332 | 0.0 | 0.0 | 0.00 | 0.00 | 0.00 | 71 | 1014.7 |
| 20260506023101 | 17 | 336 | 1.6 | 1.6 | 0.00 | 0.00 | 0.00 | 70 | 1014.6 |
| 20260506022558 | 17 | 34 | 0.0 | 0.0 | 0.00 | 0.00 | 0.00 | 69 | 1014.6 |
| 20260506022056 | 18 | 358 | 0.0 | 3.2 | 0.00 | 0.00 | 0.00 | 69 | 1014.7 |
| 20260506021553 | 18 | 263 | 0.0 | 0.0 | 0.00 | 0.00 | 0.00 | 68 | 1014.6 |
| 20260506021050 | 18 | 249 | 0.0 | 0.0 | 0.00 | 0.00 | 0.00 | 68 | 1014.4 |
| 20260506020547 | 18 | 24 | 0.0 | 0.0 | 0.00 | 0.00 | 0.00 | 67 | 1014.3 |
| 20260506020045 | 18 | 328 | 0.0 | 0.0 | 0.00 | 0.00 | 0.00 | 68 | 1014.5 |
| 20260506015542 | 18 | 353 | 0.0 | 0.0 | 0.00 | 0.00 | 0.00 | 67 | 1014.5 |
| 20260506015039 | 18 | 259 | 0.0 | 0.0 | 0.00 | 0.00 | 0.00 | 66 | 1014.3 |
| 20260506014536 | 18 | 224 | 0.0 | 1.6 | 0.00 | 0.00 | 0.00 | 65 | 1014.4 |
| 20260506014032 | 19 | 197 | 1.6 | 1.6 | 0.00 | 0.00 | 0.00 | 65 | 1014.6 |
| 20260506013531 | 20 | 291 | 0.0 | 0.0 | 0.00 | 0.00 | 0.00 | 64 | 1014.3 |
| 20260506013027 | 20 | 273 | 0.0 | 0.0 | 0.00 | 0.00 | 0.00 | 65 | 1014.4 |
| 20260506012523 | 19 | 0 | 0.0 | 1.6 | 0.00 | 0.00 | 0.00 | 65 | 1014.5 |
| 20260506012020 | 19 | 267 | 0.0 | 0.0 | 0.00 | 0.00 | 0.00 | 66 | 1014.6 |
| 20260506011518 | 18 | 290 | 3.2 | 3.2 | 0.00 | 0.00 | 0.00 | 66 | 1014.4 |
| 20260506011014 | 19 | 2 | 0.0 | 0.0 | 0.00 | 0.00 | 0.00 | 66 | 1014.7 |
| 20260506010513 | 20 | 233 | 1.6 | 1.6 | 0.00 | 0.00 | 0.00 | 62 | 1014.5 |
| 20260506010009 | 20 | 289 | 4.8 | 8.0 | 0.00 | 0.00 | 0.00 | 62 | 1014.6 |
| 20260506005507 | 20 | 83 | 3.2 | 4.8 | 0.00 | 0.00 | 0.00 | 63 | 1014.5 |
| 20260506005002 | 20 | 296 | 0.0 | 0.0 | 0.00 | 0.00 | 0.00 | 62 | 1014.6 |
| 20260506004500 | 20 | 210 | 3.2 | 8.0 | 0.00 | 0.00 | 0.00 | 64 | 1014.4 |
| 20260506003956 | 19 | 290 | 4.8 | 8.0 | 0.00 | 0.00 | 0.00 | 66 | 1014.6 |
| 20260506003452 | 20 | 280 | 9.7 | 11.3 | 0.00 | 0.00 | 0.00 | 63 | 1014.6 |
| 20260506002948 | 20 | 299 | 1.6 | 3.2 | 0.00 | 0.00 | 0.00 | 64 | 1014.6 |
| 20260506002445 | 20 | 307 | 3.2 | 4.8 | 0.00 | 0.00 | 0.00 | 64 | 1014.5 |
| 20260506001940 | 20 | 295 | 0.0 | 0.0 | 0.00 | 0.00 | 0.00 | 64 | 1014.5 |
| 20260506001438 | 20 | 284 | 8.0 | 9.7 | 0.00 | 0.00 | 0.00 | 63 | 1014.6 |
| 20260506000935 | 20 | 39 | 1.6 | 1.6 | 0.00 | 0.00 | 0.00 | 63 | 1014.6 |
| 20260506000432 | 20 | 321 | 0.0 | 0.0 | 0.00 | 0.00 | 0.00 | 64 | 1014.5 |
| 20260505235929 | 20 | 326 | 1.6 | 4.8 | 0.00 | 0.00 | 0.00 | 63 | 1014.5 |
| 20260505235427 | 20 | 336 | 3.2 | 9.7 | 0.00 | 0.00 | 0.00 | 61 | 1014.4 |
| 20260505234924 | 20 | 307 | 4.8 | 8.0 | 0.00 | 0.00 | 0.00 | 63 | 1014.3 |
| 20260505234421 | 20 | 327 | 0.0 | 1.6 | 0.00 | 0.00 | 0.00 | 63 | 1014.3 |
| 20260505233918 | 20 | 238 | 3.2 | 9.7 | 0.00 | 0.00 | 0.00 | 63 | 1014.4 |
| 20260505233416 | 20 | 265 | 9.7 | 14.5 | 0.00 | 0.00 | 0.00 | 63 | 1014.3 |
| 20260505232913 | 20 | 291 | 1.6 | 3.2 | 0.00 | 0.00 | 0.00 | 62 | 1014.4 |
| 20260505232411 | 20 | 288 | 0.0 | 0.0 | 0.00 | 0.00 | 0.00 | 64 | 1014.6 |
| 20260505231907 | 19 | 272 | 4.8 | 8.0 | 0.00 | 0.00 | 0.00 | 66 | 1014.4 |
| 20260505231405 | 20 | 326 | 0.0 | 3.2 | 0.00 | 0.00 | 0.00 | 62 | 1014.5 |
| 20260505230903 | 20 | 50 | 3.2 | 4.8 | 0.00 | 0.00 | 0.00 | 65 | 1014.6 |
| 20260505230400 | 20 | 299 | 1.6 | 4.8 | 0.00 | 0.00 | 0.00 | 63 | 1014.5 |
| 20260505225856 | 20 | 108 | 0.0 | 0.0 | 0.00 | 0.00 | 0.00 | 64 | 1014.6 |
| 20260505225354 | 20 | 347 | 0.0 | 3.2 | 0.00 | 0.00 | 0.00 | 65 | 1014.5 |
| 20260505224849 | 20 | 354 | 3.2 | 4.8 | 0.00 | 0.00 | 0.00 | 63 | 1014.5 |
| 20260505224347 | 20 | 302 | 8.0 | 11.3 | 0.00 | 0.00 | 0.00 | 65 | 1014.5 |
| 20260505223843 | 20 | 304 | 4.8 | 8.0 | 0.00 | 0.00 | 0.00 | 66 | 1014.7 |
| 20260505223340 | 19 | 239 | 4.8 | 12.9 | 0.00 | 0.00 | 0.00 | 65 | 1014.7 |
| 20260505222836 | 19 | 232 | 1.6 | 3.2 | 0.00 | 0.00 | 0.00 | 67 | 1014.9 |
| 20260505222332 | 18 | 261 | 8.0 | 14.5 | 0.00 | 0.00 | 0.00 | 67 | 1014.5 |
| 20260505221830 | 18 | 251 | 8.0 | 12.9 | 0.00 | 0.00 | 0.00 | 67 | 1014.6 |
| 20260505221326 | 18 | 247 | 9.7 | 11.3 | 0.00 | 0.00 | 0.00 | 67 | 1014.7 |
| 20260505220823 | 18 | 300 | 8.0 | 12.9 | 0.00 | 0.00 | 0.00 | 68 | 1014.7 |
| 20260505220320 | 19 | 309 | 4.8 | 8.0 | 0.00 | 0.00 | 0.00 | 66 | 1014.7 |
| 20260505215819 | 18 | 301 | 8.0 | 9.7 | 0.00 | 0.00 | 0.00 | 66 | 1014.8 |
| 20260505215316 | 18 | 9 | 1.6 | 3.2 | 0.00 | 0.00 | 0.00 | 66 | 1014.7 |
| 20260505214814 | 18 | 34 | 4.8 | 9.7 | 0.00 | 0.00 | 0.00 | 66 | 1014.6 |
| 20260505214311 | 19 | 240 | 8.0 | 12.9 | 0.00 | 0.00 | 0.00 | 66 | 1014.7 |
| 20260505213808 | 19 | 159 | 3.2 | 3.2 | 0.00 | 0.00 | 0.00 | 65 | 1014.8 |
| 20260505213306 | 18 | 33 | 0.0 | 0.0 | 0.00 | 0.00 | 0.00 | 66 | 1014.8 |
| 20260505212801 | 18 | 271 | 4.8 | 9.7 | 0.00 | 0.00 | 0.00 | 67 | 1014.7 |
| 20260505212259 | 18 | 278 | 8.0 | 9.7 | 0.00 | 0.00 | 0.00 | 67 | 1014.9 |
| 20260505211755 | 18 | 262 | 3.2 | 4.8 | 0.00 | 0.00 | 0.00 | 67 | 1014.9 |
| 20260505211253 | 18 | 299 | 4.8 | 11.3 | 0.00 | 0.00 | 0.00 | 67 | 1014.9 |
| 20260505210749 | 19 | 294 | 3.2 | 8.0 | 0.00 | 0.00 | 0.00 | 65 | 1014.8 |
| 20260505210246 | 18 | 277 | 3.2 | 4.8 | 0.00 | 0.00 | 0.00 | 67 | 1014.8 |
| 20260505205743 | 18 | 315 | 11.3 | 12.9 | 0.00 | 0.00 | 0.00 | 66 | 1015.0 |
| 20260505205242 | 18 | 305 | 3.2 | 4.8 | 0.00 | 0.00 | 0.00 | 68 | 1014.9 |
| 20260505204738 | 18 | 294 | 8.0 | 9.7 | 0.00 | 0.00 | 0.00 | 68 | 1015.0 |
| 20260505204236 | 18 | 291 | 1.6 | 8.0 | 0.00 | 0.00 | 0.00 | 65 | 1015.1 |
| 20260505203732 | 18 | 291 | 6.4 | 9.7 | 0.00 | 0.00 | 0.00 | 68 | 1015.0 |
| 20260505203230 | 18 | 10 | 4.8 | 9.7 | 0.00 | 0.00 | 0.00 | 67 | 1015.2 |
| 20260505202725 | 18 | 334 | 0.0 | 1.6 | 0.00 | 0.00 | 0.00 | 66 | 1015.4 |
| 20260505202221 | 18 | 283 | 6.4 | 12.9 | 0.00 | 0.00 | 0.00 | 68 | 1015.2 |
| 20260505201718 | 18 | 290 | 11.3 | 12.9 | 0.00 | 0.00 | 0.00 | 67 | 1015.0 |
| 20260505201216 | 18 | 182 | 0.0 | 1.6 | 0.00 | 0.00 | 0.00 | 65 | 1015.2 |
| 20260505200714 | 18 | 307 | 0.0 | 1.6 | 0.00 | 0.00 | 0.00 | 66 | 1015.3 |
| 20260505200211 | 18 | 317 | 12.9 | 14.5 | 0.00 | 0.00 | 0.00 | 67 | 1015.2 |
| 20260505195706 | 18 | 57 | 0.0 | 1.6 | 0.00 | 0.00 | 0.00 | 67 | 1015.2 |
| 20260505195204 | 17 | 43 | 6.4 | 8.0 | 0.00 | 0.00 | 0.00 | 67 | 1015.4 |
| 20260505194701 | 17 | 4 | 0.0 | 0.0 | 0.00 | 0.00 | 0.00 | 68 | 1015.5 |
| 20260505194157 | 17 | 18 | 0.0 | 1.6 | 0.00 | 0.00 | 0.00 | 69 | 1015.3 |
| 20260505193653 | 17 | 335 | 1.6 | 3.2 | 0.00 | 0.00 | 0.00 | 70 | 1015.5 |
| 20260505193151 | 17 | 28 | 1.6 | 8.0 | 0.00 | 0.00 | 0.00 | 70 | 1015.4 |
| 20260505192649 | 17 | 264 | 4.8 | 8.0 | 0.00 | 0.00 | 0.00 | 71 | 1015.5 |
| 20260505192147 | 17 | 315 | 4.8 | 4.8 | 0.00 | 0.00 | 0.00 | 71 | 1015.4 |
| 20260505191645 | 17 | 3 | 0.0 | 0.0 | 0.00 | 0.00 | 0.00 | 69 | 1015.4 |
| 20260505191143 | 17 | 305 | 9.7 | 11.3 | 0.00 | 0.00 | 0.00 | 70 | 1015.5 |
| 20260505190638 | 17 | 0 | 0.0 | 0.0 | 0.00 | 0.00 | 0.00 | 70 | 1015.5 |
| 20260505190133 | 17 | 307 | 4.8 | 9.7 | 0.00 | 0.00 | 0.00 | 69 | 1015.4 |
| 20260505185630 | 16 | 164 | 1.6 | 1.6 | 0.00 | 0.00 | 0.00 | 70 | 1015.4 |
| 20260505185126 | 17 | 337 | 3.2 | 4.8 | 0.00 | 0.00 | 0.00 | 70 | 1015.4 |
| 20260505184623 | 16 | 9 | 6.4 | 9.7 | 0.00 | 0.00 | 0.00 | 70 | 1015.6 |
| 20260505184120 | 16 | 292 | 14.5 | 17.7 | 0.00 | 0.00 | 0.00 | 70 | 1015.2 |
| 20260505183616 | 17 | 280 | 6.4 | 9.7 | 0.00 | 0.00 | 0.00 | 70 | 1015.3 |
| 20260505183114 | 17 | 320 | 4.8 | 9.7 | 0.00 | 0.00 | 0.00 | 71 | 1015.4 |
| 20260505182610 | 17 | 348 | 4.8 | 8.0 | 0.00 | 0.00 | 0.00 | 69 | 1015.4 |
| 20260505182107 | 16 | 281 | 11.3 | 14.5 | 0.00 | 0.00 | 0.00 | 70 | 1015.4 |
| 20260505181604 | 16 | 271 | 12.9 | 14.5 | 0.00 | 0.00 | 0.00 | 71 | 1015.3 |
| 20260505181101 | 16 | 313 | 8.0 | 9.7 | 0.00 | 0.00 | 0.00 | 72 | 1015.2 |
| 20260505180556 | 16 | 286 | 14.5 | 16.1 | 0.00 | 0.00 | 0.00 | 73 | 1015.3 |
| 20260505180055 | 16 | 341 | 6.4 | 11.3 | 0.00 | 0.00 | 0.00 | 74 | 1015.3 |
| 20260505175550 | 16 | 323 | 8.0 | 11.3 | 0.00 | 0.00 | 0.00 | 73 | 1015.2 |
| 20260505175047 | 16 | 273 | 8.0 | 11.3 | 0.00 | 0.00 | 0.00 | 75 | 1015.1 |
| 20260505174544 | 15 | 289 | 9.7 | 12.9 | 0.00 | 0.00 | 0.00 | 77 | 1015.3 |
| 20260505174039 | 15 | 283 | 8.0 | 9.7 | 0.00 | 0.00 | 0.00 | 76 | 1015.1 |
| 20260505173536 | 15 | 340 | 1.6 | 1.6 | 0.00 | 0.00 | 0.00 | 78 | 1015.1 |
| 20260505173033 | 15 | 319 | 1.6 | 1.6 | 0.00 | 0.00 | 0.00 | 79 | 1014.8 |
| 20260505172531 | 14 | 269 | 4.8 | 8.0 | 0.00 | 0.00 | 0.00 | 79 | 1014.9 |
| 20260505172027 | 14 | 64 | 1.6 | 3.2 | 0.00 | 0.00 | 0.00 | 80 | 1014.8 |
| 20260505171522 | 14 | 279 | 3.2 | 4.8 | 0.00 | 0.00 | 0.00 | 80 | 1014.9 |
| 20260505171020 | 14 | 342 | 1.6 | 1.6 | 0.00 | 0.00 | 0.00 | 80 | 1014.9 |
| 20260505170516 | 14 | 323 | 1.6 | 8.0 | 0.00 | 0.00 | 0.00 | 79 | 1015.0 |
| 20260505170012 | 14 | 84 | 8.0 | 12.9 | 0.00 | 0.00 | 0.00 | 79 | 1015.1 |
| 20260505165508 | 14 | 235 | 1.6 | 3.2 | 0.00 | 0.00 | 0.00 | 79 | 1015.2 |
| 20260505165004 | 15 | 307 | 8.0 | 12.9 | 0.00 | 0.00 | 0.00 | 79 | 1014.9 |
| 20260505164500 | 15 | 301 | 3.2 | 4.8 | 0.00 | 0.00 | 0.00 | 78 | 1014.9 |
| 20260505163958 | 14 | 111 | 0.0 | 1.6 | 0.00 | 0.00 | 0.00 | 81 | 1015.0 |
| 20260505163456 | 14 | 265 | 8.0 | 9.7 | 0.00 | 0.00 | 0.00 | 82 | 1014.8 |
| 20260505162956 | 14 | 307 | 1.6 | 3.2 | 0.00 | 0.00 | 0.00 | 82 | 1014.9 |
| 20260505162451 | 14 | 312 | 3.2 | 8.0 | 0.00 | 0.00 | 0.00 | 83 | 1014.9 |
| 20260505161947 | 14 | 284 | 8.0 | 11.3 | 0.00 | 0.00 | 0.00 | 82 | 1014.8 |
| 20260505161439 | 14 | 286 | 3.2 | 8.0 | 0.00 | 0.00 | 0.00 | 82 | 1014.6 |
| 20260505160936 | 13 | 268 | 0.0 | 0.0 | 0.00 | 0.00 | 0.00 | 83 | 1014.7 |
| 20260505160435 | 14 | 288 | 3.2 | 3.2 | 0.00 | 0.00 | 0.00 | 82 | 1014.8 |
| 20260505152910 | 12 | 296 | 6.4 | 8.0 | 0.00 | 0.00 | 0.00 | 86 | 1014.6 |
| 20260505152407 | 12 | 288 | 3.2 | 3.2 | 0.00 | 0.00 | 0.00 | 87 | 1014.7 |
| 20260505151901 | 12 | 291 | 4.8 | 4.8 | 0.00 | 0.00 | 0.00 | 87 | 1014.4 |